createdAt,value
2018-12-23T00:00:12.151Z,25.68
2018-12-23T00:01:12.155Z,25.59
2018-12-23T00:02:12.157Z,25.68
2018-12-23T00:03:12.160Z,25.59
2018-12-23T00:04:12.163Z,25.77
2018-12-23T00:05:12.167Z,25.68
2018-12-23T00:06:12.179Z,25.67
2018-12-23T00:07:12.172Z,25.68
2018-12-23T00:08:12.176Z,25.77
2018-12-23T00:09:12.178Z,25.78
2018-12-23T00:10:12.185Z,25.67
2018-12-23T00:11:12.184Z,25.78
2018-12-23T00:12:12.187Z,25.77
2018-12-23T00:13:12.190Z,25.67
2018-12-23T00:14:12.192Z,25.68
2018-12-23T00:15:12.196Z,25.77
2018-12-23T00:16:12.198Z,25.78
2018-12-23T00:17:12.201Z,25.77
2018-12-23T00:18:12.205Z,25.77
2018-12-23T00:19:12.207Z,25.67
2018-12-23T00:20:12.210Z,25.77
2018-12-23T00:21:12.212Z,25.67
2018-12-23T00:22:12.215Z,25.77
2018-12-23T00:23:12.219Z,25.87
2018-12-23T00:24:12.222Z,25.87
2018-12-23T00:25:12.224Z,25.77
2018-12-23T00:26:12.227Z,25.87
2018-12-23T00:27:12.231Z,25.77
2018-12-23T00:28:12.234Z,25.38
2018-12-23T00:29:12.236Z,25.38
2018-12-23T00:30:12.239Z,25.29
2018-12-23T00:31:12.249Z,25.38
2018-12-23T00:32:12.245Z,25.29
2018-12-23T00:33:12.246Z,25.38
2018-12-23T00:34:12.252Z,25.38
2018-12-23T00:35:20.051Z,25.19
2018-12-23T00:36:12.257Z,25.19
2018-12-23T00:37:12.260Z,25.49
2018-12-23T00:38:12.261Z,25.19
2018-12-23T00:39:12.265Z,25.38
2018-12-23T00:40:12.268Z,25.58
2018-12-23T00:41:12.271Z,25.38
2018-12-23T00:42:12.275Z,25.19
2018-12-23T00:43:12.279Z,25.38
2018-12-23T00:44:12.280Z,25.19
2018-12-23T00:45:12.282Z,25.29
2018-12-23T00:46:12.285Z,25.20
2018-12-23T00:47:12.319Z,25.19
2018-12-23T00:48:12.292Z,25.19
2018-12-23T00:49:12.293Z,25.38
2018-12-23T00:50:12.303Z,25.29
2018-12-23T00:51:12.301Z,25.19
2018-12-23T00:52:12.309Z,25.19
2018-12-23T00:53:12.305Z,25.29
2018-12-23T00:54:12.309Z,25.29
2018-12-23T00:55:12.314Z,25.19
2018-12-23T00:56:12.316Z,25.19
2018-12-23T00:57:12.317Z,25.19
2018-12-23T00:58:12.323Z,25.29
2018-12-23T00:59:12.324Z,25.29
2018-12-23T01:00:12.327Z,25.29
2018-12-23T01:01:12.327Z,25.29
2018-12-23T01:02:12.332Z,25.29
2018-12-23T01:03:12.336Z,25.19
2018-12-23T01:04:12.339Z,25.19
2018-12-23T01:05:12.342Z,25.19
2018-12-23T01:06:12.344Z,25.19
2018-12-23T01:07:12.347Z,25.29
2018-12-23T01:08:12.361Z,25.19
2018-12-23T01:09:12.361Z,25.29
2018-12-23T01:10:12.358Z,25.29
2018-12-23T01:11:12.360Z,25.29
2018-12-23T01:12:12.362Z,25.29
2018-12-23T01:13:12.364Z,25.19
2018-12-23T01:14:12.368Z,25.19
2018-12-23T01:15:12.371Z,25.29
2018-12-23T01:16:12.397Z,25.19
2018-12-23T01:17:12.386Z,25.19
2018-12-23T01:18:12.387Z,25.19
2018-12-23T01:19:12.388Z,25.19
2018-12-23T01:20:12.386Z,25.29
2018-12-23T01:21:12.386Z,25.19
2018-12-23T01:22:12.388Z,25.19
2018-12-23T01:23:12.393Z,25.29
2018-12-23T01:24:12.396Z,25.38
2018-12-23T01:25:12.398Z,25.19
2018-12-23T01:26:12.402Z,25.19
2018-12-23T01:27:12.405Z,25.19
2018-12-23T01:28:12.408Z,25.29
2018-12-23T01:29:12.410Z,25.09
2018-12-23T01:30:12.413Z,25.09
2018-12-23T01:31:12.417Z,25.19
2018-12-23T01:32:12.417Z,25.29
2018-12-23T01:33:12.423Z,25.19
2018-12-23T01:34:12.424Z,25.29
2018-12-23T01:35:12.428Z,25.29
2018-12-23T01:36:12.431Z,25.29
2018-12-23T01:37:12.433Z,25.29
2018-12-23T01:38:12.436Z,25.29
2018-12-23T01:39:12.447Z,25.29
2018-12-23T01:40:12.444Z,25.19
2018-12-23T01:41:12.445Z,25.29
2018-12-23T01:42:12.448Z,25.19
2018-12-23T01:43:12.455Z,25.29
2018-12-23T01:44:12.456Z,25.19
2018-12-23T01:45:12.466Z,25.19
2018-12-23T01:46:12.464Z,25.19
2018-12-23T01:47:12.465Z,25.19
2018-12-23T01:48:12.466Z,25.29
2018-12-23T01:49:12.467Z,25.29
2018-12-23T01:50:12.471Z,25.19
2018-12-23T01:51:12.473Z,25.19
2018-12-23T01:52:12.477Z,25.09
2018-12-23T01:53:12.479Z,25.29
2018-12-23T01:54:12.483Z,25.09
2018-12-23T01:55:12.487Z,25.09
2018-12-23T01:56:12.489Z,25.09
2018-12-23T01:57:12.490Z,25.09
2018-12-23T01:58:12.494Z,25.09
2018-12-23T01:59:12.497Z,25.19
2018-12-23T02:00:12.500Z,25.29
2018-12-23T02:01:12.502Z,25.19
2018-12-23T02:02:12.504Z,25.29
2018-12-23T02:03:12.508Z,25.09
2018-12-23T02:04:12.511Z,25.19
2018-12-23T02:05:12.513Z,25.09
2018-12-23T02:06:13.458Z,25.09
2018-12-23T02:07:12.525Z,25.19
2018-12-23T02:08:12.528Z,25.09
2018-12-23T02:09:12.525Z,25.09
2018-12-23T02:10:12.527Z,25.19
2018-12-23T02:11:12.530Z,25.09
2018-12-23T02:12:12.532Z,25.09
2018-12-23T02:13:12.536Z,25.09
2018-12-23T02:14:12.538Z,25.29
2018-12-23T02:15:12.592Z,24.99
2018-12-23T02:16:12.548Z,25.19
2018-12-23T02:17:12.550Z,25.29
2018-12-23T02:18:12.550Z,25.19
2018-12-23T02:19:12.553Z,25.09
2018-12-23T02:20:12.558Z,25.09
2018-12-23T02:21:12.558Z,25.09
2018-12-23T02:22:12.562Z,24.99
2018-12-23T02:23:12.569Z,24.99
2018-12-23T02:24:12.568Z,25.29
2018-12-23T02:25:12.570Z,25.09
2018-12-23T02:26:12.574Z,25.29
2018-12-23T02:27:12.577Z,25.19
2018-12-23T02:28:12.582Z,25.09
2018-12-23T02:29:12.582Z,25.19
2018-12-23T02:30:12.587Z,25.19
2018-12-23T02:31:12.637Z,25.09
2018-12-23T02:32:12.590Z,25.29
2018-12-23T02:33:12.592Z,25.29
2018-12-23T02:34:12.595Z,25.19
2018-12-23T02:35:12.599Z,25.19
2018-12-23T02:36:12.601Z,25.19
2018-12-23T02:37:12.603Z,25.09
2018-12-23T02:38:12.606Z,25.19
2018-12-23T02:39:12.610Z,25.09
2018-12-23T02:40:12.614Z,25.29
2018-12-23T02:41:12.615Z,25.29
2018-12-23T02:42:12.619Z,25.29
2018-12-23T02:43:12.622Z,24.90
2018-12-23T02:44:12.625Z,24.90
2018-12-23T02:45:12.635Z,24.99
2018-12-23T02:46:12.646Z,25.09
2018-12-23T02:47:12.634Z,24.90
2018-12-23T02:48:12.635Z,24.99
2018-12-23T02:49:12.637Z,24.99
2018-12-23T02:50:12.641Z,24.99
2018-12-23T02:51:12.642Z,24.99
2018-12-23T02:52:12.647Z,24.99
2018-12-23T02:53:12.657Z,24.90
2018-12-23T02:54:12.652Z,24.99
2018-12-23T02:55:12.656Z,24.90
2018-12-23T02:56:12.658Z,24.90
2018-12-23T02:57:12.664Z,24.90
2018-12-23T02:58:12.664Z,25.09
2018-12-23T02:59:12.668Z,25.09
2018-12-23T03:00:12.670Z,24.99
2018-12-23T03:01:12.672Z,24.99
2018-12-23T03:02:12.676Z,25.29
2018-12-23T03:03:12.679Z,25.09
2018-12-23T03:04:12.687Z,25.19
2018-12-23T03:05:12.696Z,25.09
2018-12-23T03:06:12.688Z,24.99
2018-12-23T03:07:12.690Z,24.90
2018-12-23T03:08:12.692Z,25.19
2018-12-23T03:09:12.695Z,24.99
2018-12-23T03:10:12.697Z,24.99
2018-12-23T03:11:12.700Z,24.90
2018-12-23T03:12:12.704Z,24.99
2018-12-23T03:13:12.708Z,24.99
2018-12-23T03:14:12.709Z,24.99
2018-12-23T03:15:12.715Z,24.90
2018-12-23T03:16:12.717Z,25.09
2018-12-23T03:17:12.728Z,24.99
2018-12-23T03:18:12.721Z,25.09
2018-12-23T03:19:12.724Z,25.09
2018-12-23T03:20:12.726Z,24.99
2018-12-23T03:21:12.740Z,24.90
2018-12-23T03:22:12.733Z,25.09
2018-12-23T03:23:12.734Z,24.99
2018-12-23T03:24:12.750Z,24.99
2018-12-23T03:25:12.740Z,24.99
2018-12-23T03:26:12.741Z,24.99
2018-12-23T03:27:12.751Z,24.99
2018-12-23T03:28:12.748Z,24.90
2018-12-23T03:29:12.762Z,24.90
2018-12-23T03:30:12.760Z,24.99
2018-12-23T03:31:12.768Z,25.09
2018-12-23T03:32:12.766Z,24.99
2018-12-23T03:33:12.768Z,24.99
2018-12-23T03:34:12.767Z,24.99
2018-12-23T03:35:12.773Z,24.99
2018-12-23T03:36:15.290Z,24.99
2018-12-23T03:37:12.773Z,24.99
2018-12-23T03:38:12.776Z,25.09
2018-12-23T03:39:12.779Z,25.29
2018-12-23T03:40:12.782Z,25.29
2018-12-23T03:41:12.784Z,24.99
2018-12-23T03:42:12.791Z,24.99
2018-12-23T03:43:12.791Z,24.99
2018-12-23T03:44:12.793Z,24.99
2018-12-23T03:45:12.799Z,25.09
2018-12-23T03:46:12.800Z,25.09
2018-12-23T03:47:12.803Z,24.99
2018-12-23T03:48:12.805Z,24.99
2018-12-23T03:49:12.809Z,24.99
2018-12-23T03:50:12.810Z,24.99
2018-12-23T03:51:12.814Z,24.99
2018-12-23T03:52:12.817Z,24.90
2018-12-23T03:53:12.821Z,24.99
2018-12-23T03:54:12.821Z,24.99
2018-12-23T03:55:12.826Z,24.99
2018-12-23T03:56:12.828Z,24.99
2018-12-23T03:57:12.833Z,24.99
2018-12-23T03:58:12.843Z,25.09
2018-12-23T03:59:12.844Z,24.99
2018-12-23T04:00:12.839Z,24.99
2018-12-23T04:01:12.839Z,24.99
2018-12-23T04:02:12.844Z,24.90
2018-12-23T04:03:12.848Z,24.99
2018-12-23T04:04:12.850Z,24.99
2018-12-23T04:05:12.859Z,24.99
2018-12-23T04:06:12.855Z,24.99
2018-12-23T04:07:12.858Z,25.09
2018-12-23T04:08:12.861Z,24.99
2018-12-23T04:09:12.865Z,24.99
2018-12-23T04:10:12.867Z,24.99
2018-12-23T04:11:12.870Z,25.29
2018-12-23T04:12:12.872Z,24.90
2018-12-23T04:13:12.881Z,25.19
2018-12-23T04:14:12.879Z,24.99
2018-12-23T04:15:12.881Z,25.19
2018-12-23T04:16:12.884Z,25.29
2018-12-23T04:17:12.886Z,24.90
2018-12-23T04:18:12.891Z,24.99
2018-12-23T04:19:12.895Z,24.90
2018-12-23T04:20:12.906Z,25.09
2018-12-23T04:21:12.908Z,24.99
2018-12-23T04:22:12.900Z,24.99
2018-12-23T04:23:12.905Z,24.99
2018-12-23T04:24:12.906Z,25.09
2018-12-23T04:25:12.908Z,24.99
2018-12-23T04:26:12.913Z,24.99
2018-12-23T04:27:12.915Z,24.99
2018-12-23T04:28:12.918Z,24.99
2018-12-23T04:29:12.920Z,25.09
2018-12-23T04:30:12.926Z,24.99
2018-12-23T04:31:12.932Z,25.09
2018-12-23T04:32:12.931Z,25.09
2018-12-23T04:33:12.932Z,24.99
2018-12-23T04:34:12.934Z,24.99
2018-12-23T04:35:12.941Z,25.09
2018-12-23T04:36:12.941Z,25.09
2018-12-23T04:37:12.943Z,25.09
2018-12-23T04:38:13.007Z,25.09
2018-12-23T04:39:12.950Z,25.09
2018-12-23T04:40:12.957Z,25.09
2018-12-23T04:41:12.954Z,24.99
2018-12-23T04:42:12.963Z,24.90
2018-12-23T04:43:12.961Z,24.99
2018-12-23T04:44:12.964Z,24.99
2018-12-23T04:45:12.965Z,25.09
2018-12-23T04:46:12.969Z,24.99
2018-12-23T04:47:12.972Z,25.09
2018-12-23T04:48:12.976Z,24.99
2018-12-23T04:49:12.977Z,25.09
2018-12-23T04:50:12.980Z,24.90
2018-12-23T04:51:12.983Z,24.99
2018-12-23T04:52:12.997Z,25.09
2018-12-23T04:53:12.989Z,24.99
2018-12-23T04:54:12.991Z,24.99
2018-12-23T04:55:12.995Z,25.09
2018-12-23T04:56:13.003Z,25.09
2018-12-23T04:57:13.000Z,25.09
2018-12-23T04:58:13.002Z,24.99
2018-12-23T04:59:13.006Z,24.99
2018-12-23T05:00:13.009Z,25.09
2018-12-23T05:01:13.015Z,24.99
2018-12-23T05:02:13.014Z,25.09
2018-12-23T05:03:13.018Z,24.99
2018-12-23T05:04:13.020Z,25.09
2018-12-23T05:05:13.033Z,24.99
2018-12-23T05:06:13.025Z,24.99
2018-12-23T05:07:13.029Z,25.09
2018-12-23T05:08:13.031Z,24.90
2018-12-23T05:09:13.034Z,24.99
2018-12-23T05:10:13.036Z,24.99
2018-12-23T05:11:13.055Z,24.99
2018-12-23T05:12:13.043Z,25.09
2018-12-23T05:13:13.050Z,25.09
2018-12-23T05:14:13.051Z,24.99
2018-12-23T05:15:13.051Z,24.99
2018-12-23T05:16:13.122Z,25.19
2018-12-23T05:17:13.063Z,25.09
2018-12-23T05:18:13.059Z,24.99
2018-12-23T05:19:13.062Z,25.09
2018-12-23T05:20:13.066Z,24.99
2018-12-23T05:21:13.073Z,25.09
2018-12-23T05:22:13.071Z,24.99
2018-12-23T05:23:13.074Z,25.09
2018-12-23T05:24:13.078Z,25.09
2018-12-23T05:25:13.080Z,25.19
2018-12-23T05:26:13.082Z,24.90
2018-12-23T05:27:13.085Z,24.90
2018-12-23T05:28:13.088Z,25.09
2018-12-23T05:29:13.098Z,24.99
2018-12-23T05:30:13.099Z,25.09
2018-12-23T05:31:13.101Z,25.09
2018-12-23T05:32:13.101Z,25.09
2018-12-23T05:33:13.102Z,24.99
2018-12-23T05:34:13.106Z,24.99
2018-12-23T05:35:13.108Z,25.09
2018-12-23T05:36:13.124Z,25.09
2018-12-23T05:37:13.113Z,24.80
2018-12-23T05:38:13.115Z,25.09
2018-12-23T05:39:13.123Z,24.90
2018-12-23T05:40:13.133Z,25.09
2018-12-23T05:41:13.124Z,24.99
2018-12-23T05:42:13.127Z,25.19
2018-12-23T05:43:13.137Z,25.09
2018-12-23T05:44:13.135Z,24.99
2018-12-23T05:45:13.149Z,25.09
2018-12-23T05:46:13.139Z,25.09
2018-12-23T05:47:13.144Z,25.09
2018-12-23T05:48:13.145Z,25.09
2018-12-23T05:49:13.147Z,24.99
2018-12-23T05:50:13.153Z,25.09
2018-12-23T05:51:13.152Z,24.99
2018-12-23T05:52:13.156Z,25.09
2018-12-23T05:53:13.158Z,24.99
2018-12-23T05:54:13.162Z,25.09
2018-12-23T05:55:13.166Z,25.09
2018-12-23T05:56:13.167Z,25.09
2018-12-23T05:57:13.171Z,25.09
2018-12-23T05:58:13.180Z,24.99
2018-12-23T05:59:13.181Z,24.99
2018-12-23T06:00:13.212Z,25.09
2018-12-23T06:01:13.181Z,25.09
2018-12-23T06:02:13.184Z,24.99
2018-12-23T06:03:13.187Z,25.09
2018-12-23T06:04:13.190Z,25.09
2018-12-23T06:05:13.192Z,25.09
2018-12-23T06:06:13.203Z,24.99
2018-12-23T06:07:13.248Z,24.99
2018-12-23T06:08:13.203Z,24.90
2018-12-23T06:09:13.205Z,24.99
2018-12-23T06:10:13.208Z,25.09
2018-12-23T06:11:13.216Z,25.09
2018-12-23T06:12:13.213Z,24.99
2018-12-23T06:13:13.215Z,24.99
2018-12-23T06:14:13.222Z,25.09
2018-12-23T06:15:13.221Z,24.99
2018-12-23T06:16:13.224Z,25.09
2018-12-23T06:17:13.226Z,25.09
2018-12-23T06:18:13.229Z,24.99
2018-12-23T06:19:13.232Z,24.90
2018-12-23T06:20:13.235Z,24.99
2018-12-23T06:21:13.337Z,25.09
2018-12-23T06:22:13.242Z,25.09
2018-12-23T06:23:13.246Z,25.09
2018-12-23T06:24:13.246Z,24.99
2018-12-23T06:25:13.250Z,25.09
2018-12-23T06:26:13.255Z,24.99
2018-12-23T06:27:13.254Z,24.90
2018-12-23T06:28:13.257Z,24.90
2018-12-23T06:29:13.260Z,24.90
2018-12-23T06:30:13.272Z,25.09
2018-12-23T06:31:13.269Z,25.09
2018-12-23T06:32:13.270Z,24.90
2018-12-23T06:33:13.273Z,24.90
2018-12-23T06:34:13.274Z,24.99
2018-12-23T06:35:13.277Z,24.99
2018-12-23T06:36:13.286Z,24.99
2018-12-23T06:37:13.283Z,24.90
2018-12-23T06:38:13.285Z,24.90
2018-12-23T06:39:13.288Z,24.90
2018-12-23T06:40:13.291Z,24.90
2018-12-23T06:41:13.293Z,24.99
2018-12-23T06:42:13.296Z,24.90
2018-12-23T06:43:13.299Z,24.90
2018-12-23T06:44:13.305Z,24.99
2018-12-23T06:45:13.306Z,24.99
2018-12-23T06:46:13.313Z,24.80
2018-12-23T06:47:13.311Z,24.90
2018-12-23T06:48:13.315Z,25.09
2018-12-23T06:49:13.318Z,24.80
2018-12-23T06:50:13.318Z,24.80
2018-12-23T06:51:13.322Z,24.90
2018-12-23T06:52:13.321Z,25.09
2018-12-23T06:53:13.327Z,24.99
2018-12-23T06:54:13.330Z,24.90
2018-12-23T06:55:13.334Z,25.09
2018-12-23T06:56:13.337Z,24.99
2018-12-23T06:57:13.338Z,24.99
2018-12-23T06:58:13.343Z,24.99
2018-12-23T06:59:13.345Z,25.09
2018-12-23T07:00:13.351Z,25.09
2018-12-23T07:01:13.349Z,24.99
2018-12-23T07:02:13.354Z,24.99
2018-12-23T07:03:13.356Z,24.90
2018-12-23T07:04:13.366Z,24.99
2018-12-23T07:05:13.371Z,24.90
2018-12-23T07:06:13.461Z,24.90
2018-12-23T07:07:18.612Z,24.90
2018-12-23T07:08:13.372Z,24.99
2018-12-23T07:09:13.372Z,24.99
2018-12-23T07:10:13.376Z,24.90
2018-12-23T07:11:13.380Z,24.99
2018-12-23T07:12:13.382Z,24.99
2018-12-23T07:13:13.385Z,24.90
2018-12-23T07:14:13.387Z,24.90
2018-12-23T07:15:13.390Z,24.99
2018-12-23T07:16:13.404Z,24.99
2018-12-23T07:17:13.395Z,24.99
2018-12-23T07:18:13.399Z,24.99
2018-12-23T07:19:13.404Z,24.90
2018-12-23T07:20:13.411Z,24.99
2018-12-23T07:21:13.407Z,25.09
2018-12-23T07:22:13.421Z,24.99
2018-12-23T07:23:13.413Z,24.99
2018-12-23T07:24:13.416Z,24.90
2018-12-23T07:25:13.418Z,24.90
2018-12-23T07:26:13.422Z,24.90
2018-12-23T07:27:13.425Z,24.99
2018-12-23T07:28:13.427Z,24.99
2018-12-23T07:29:13.429Z,24.99
2018-12-23T07:30:13.433Z,24.99
2018-12-23T07:31:13.486Z,24.99
2018-12-23T07:32:13.440Z,24.71
2018-12-23T07:33:13.440Z,24.99
2018-12-23T07:34:13.444Z,24.99
2018-12-23T07:35:13.446Z,24.99
2018-12-23T07:36:13.451Z,24.99
2018-12-23T07:37:13.452Z,24.71
2018-12-23T07:38:13.457Z,24.80
2018-12-23T07:39:13.459Z,24.99
2018-12-23T07:40:13.462Z,24.80
2018-12-23T07:41:13.464Z,24.90
2018-12-23T07:42:13.467Z,24.99
2018-12-23T07:43:13.473Z,25.09
2018-12-23T07:44:13.473Z,24.71
2018-12-23T07:45:13.479Z,24.90
2018-12-23T07:46:13.478Z,24.99
2018-12-23T07:47:13.481Z,24.99
2018-12-23T07:48:13.484Z,24.99
2018-12-23T07:49:13.487Z,24.99
2018-12-23T07:50:13.489Z,24.90
2018-12-23T07:51:13.493Z,24.99
2018-12-23T07:52:13.495Z,24.99
2018-12-23T07:53:13.497Z,24.99
2018-12-23T07:54:13.502Z,24.90
2018-12-23T07:55:13.508Z,24.99
2018-12-23T07:56:13.509Z,24.99
2018-12-23T07:57:13.508Z,24.99
2018-12-23T07:58:13.512Z,24.80
2018-12-23T07:59:13.515Z,24.80
2018-12-23T08:00:13.518Z,24.80
2018-12-23T08:01:13.527Z,24.80
2018-12-23T08:02:13.524Z,24.99
2018-12-23T08:03:13.527Z,24.99
2018-12-23T08:04:13.529Z,24.71
2018-12-23T08:05:13.534Z,24.99
2018-12-23T08:06:13.536Z,24.99
2018-12-23T08:07:13.539Z,24.71
2018-12-23T08:08:13.543Z,24.71
2018-12-23T08:09:13.542Z,24.99
2018-12-23T08:10:13.547Z,24.99
2018-12-23T08:11:13.549Z,24.99
2018-12-23T08:12:13.552Z,24.80
2018-12-23T08:13:13.554Z,24.71
2018-12-23T08:14:13.557Z,24.71
2018-12-23T08:15:13.560Z,24.90
2018-12-23T08:16:13.656Z,24.80
2018-12-23T08:17:13.565Z,24.80
2018-12-23T08:18:13.568Z,24.71
2018-12-23T08:19:13.571Z,24.80
2018-12-23T08:20:13.573Z,24.80
2018-12-23T08:21:13.574Z,24.80
2018-12-23T08:22:13.580Z,24.71
2018-12-23T08:23:13.582Z,24.80
2018-12-23T08:24:13.586Z,24.80
2018-12-23T08:25:13.588Z,24.80
2018-12-23T08:26:13.592Z,24.71
2018-12-23T08:27:13.593Z,24.90
2018-12-23T08:28:13.597Z,24.71
2018-12-23T08:29:13.603Z,24.71
2018-12-23T08:30:13.635Z,24.80
2018-12-23T08:31:13.611Z,24.90
2018-12-23T08:32:13.609Z,24.71
2018-12-23T08:33:13.614Z,24.80
2018-12-23T08:34:13.615Z,24.99
2018-12-23T08:35:13.617Z,24.99
2018-12-23T08:36:13.628Z,24.99
2018-12-23T08:37:13.622Z,24.71
2018-12-23T08:38:13.625Z,24.90
2018-12-23T08:39:13.628Z,24.80
2018-12-23T08:40:13.631Z,24.80
2018-12-23T08:41:13.635Z,24.80
2018-12-23T08:42:13.639Z,24.80
2018-12-23T08:43:13.639Z,24.80
2018-12-23T08:44:13.642Z,24.80
2018-12-23T08:45:13.643Z,24.71
2018-12-23T08:46:13.648Z,24.80
2018-12-23T08:47:13.651Z,24.90
2018-12-23T08:48:13.655Z,24.80
2018-12-23T08:49:13.656Z,24.90
2018-12-23T08:50:13.659Z,24.71
2018-12-23T08:51:13.662Z,24.90
2018-12-23T08:52:13.663Z,24.80
2018-12-23T08:53:13.667Z,24.80
2018-12-23T08:54:13.670Z,24.80
2018-12-23T08:55:13.675Z,24.80
2018-12-23T08:56:13.676Z,24.80
2018-12-23T08:57:13.679Z,24.80
2018-12-23T08:58:13.682Z,24.80
2018-12-23T08:59:13.685Z,24.80
2018-12-23T09:00:13.688Z,24.90
2018-12-23T09:01:13.691Z,24.71
2018-12-23T09:02:13.695Z,24.90
2018-12-23T09:03:18.838Z,24.90
2018-12-23T09:04:13.701Z,24.80
2018-12-23T09:05:13.703Z,24.71
2018-12-23T09:06:13.704Z,24.71
2018-12-23T09:07:13.707Z,24.71
2018-12-23T09:08:13.714Z,24.90
2018-12-23T09:09:13.713Z,24.90
2018-12-23T09:10:13.716Z,24.90
2018-12-23T09:11:13.721Z,24.90
2018-12-23T09:12:13.722Z,24.80
2018-12-23T09:13:13.727Z,24.80
2018-12-23T09:14:13.737Z,24.80
2018-12-23T09:15:13.730Z,24.71
2018-12-23T09:16:13.733Z,24.90
2018-12-23T09:17:13.739Z,24.71
2018-12-23T09:18:19.313Z,24.80
2018-12-23T09:19:13.740Z,24.80
2018-12-23T09:20:13.747Z,24.90
2018-12-23T09:21:13.751Z,24.99
2018-12-23T09:22:13.751Z,24.99
2018-12-23T09:23:13.753Z,24.90
2018-12-23T09:24:13.756Z,24.80
2018-12-23T09:25:13.763Z,24.99
2018-12-23T09:26:13.763Z,24.80
2018-12-23T09:27:13.763Z,24.80
2018-12-23T09:28:13.768Z,24.90
2018-12-23T09:29:13.771Z,24.90
2018-12-23T09:30:13.772Z,24.90
2018-12-23T09:31:14.526Z,24.90
2018-12-23T09:32:13.778Z,24.90
2018-12-23T09:33:13.784Z,24.90
2018-12-23T09:34:13.783Z,24.80
2018-12-23T09:35:13.787Z,24.71
2018-12-23T09:36:13.790Z,24.90
2018-12-23T09:37:13.792Z,24.80
2018-12-23T09:38:13.795Z,24.90
2018-12-23T09:39:13.798Z,24.90
2018-12-23T09:40:13.807Z,24.71
2018-12-23T09:41:13.808Z,24.90
2018-12-23T09:42:13.810Z,24.80
2018-12-23T09:43:14.880Z,24.90
2018-12-23T09:44:13.818Z,24.71
2018-12-23T09:45:13.815Z,24.71
2018-12-23T09:46:13.818Z,24.71
2018-12-23T09:47:13.820Z,24.71
2018-12-23T09:48:13.825Z,24.80
2018-12-23T09:49:13.826Z,24.71
2018-12-23T09:50:13.829Z,24.71
2018-12-23T09:51:13.837Z,24.80
2018-12-23T09:52:13.836Z,24.71
2018-12-23T09:53:13.840Z,24.90
2018-12-23T09:54:13.840Z,24.71
2018-12-23T09:55:13.845Z,24.80
2018-12-23T09:56:13.846Z,24.71
2018-12-23T09:57:13.848Z,24.71
2018-12-23T09:58:13.851Z,24.71
2018-12-23T09:59:13.855Z,24.71
2018-12-23T10:00:13.858Z,24.71
2018-12-23T10:01:13.863Z,24.71
2018-12-23T10:02:13.863Z,24.71
2018-12-23T10:03:13.866Z,24.71
2018-12-23T10:04:13.869Z,24.71
2018-12-23T10:05:13.871Z,24.71
2018-12-23T10:06:13.874Z,24.71
2018-12-23T10:07:13.877Z,24.80
2018-12-23T10:08:13.898Z,24.80
2018-12-23T10:09:13.882Z,24.71
2018-12-23T10:10:13.893Z,24.80
2018-12-23T10:11:13.891Z,24.80
2018-12-23T10:12:13.892Z,24.71
2018-12-23T10:13:13.898Z,24.61
2018-12-23T10:14:13.901Z,24.71
2018-12-23T10:15:13.900Z,24.71
2018-12-23T10:16:13.903Z,24.80
2018-12-23T10:17:13.907Z,24.71
2018-12-23T10:18:13.911Z,24.80
2018-12-23T10:19:13.913Z,24.80
2018-12-23T10:20:13.919Z,24.80
2018-12-23T10:21:13.920Z,24.80
2018-12-23T10:22:13.921Z,24.71
2018-12-23T10:23:13.923Z,24.71
2018-12-23T10:24:14.035Z,24.80
2018-12-23T10:25:13.928Z,24.80
2018-12-23T10:26:13.938Z,24.61
2018-12-23T10:27:13.935Z,24.71
2018-12-23T10:28:13.989Z,24.71
2018-12-23T10:29:13.940Z,24.80
2018-12-23T10:30:13.950Z,24.71
2018-12-23T10:31:13.946Z,24.80
2018-12-23T10:32:13.952Z,24.80
2018-12-23T10:33:13.951Z,24.71
2018-12-23T10:34:13.954Z,24.71
2018-12-23T10:35:13.958Z,24.71
2018-12-23T10:36:13.959Z,24.71
2018-12-23T10:37:13.963Z,24.80
2018-12-23T10:38:18.383Z,24.71
2018-12-23T10:39:13.975Z,24.80
2018-12-23T10:40:13.978Z,24.80
2018-12-23T10:41:13.978Z,24.71
2018-12-23T10:42:13.979Z,24.71
2018-12-23T10:43:13.981Z,24.71
2018-12-23T10:44:13.987Z,24.80
2018-12-23T10:45:13.986Z,24.71
2018-12-23T10:46:13.989Z,24.71
2018-12-23T10:47:13.995Z,24.71
2018-12-23T10:48:13.995Z,24.80
2018-12-23T10:49:13.997Z,24.80
2018-12-23T10:50:14.002Z,24.71
2018-12-23T10:51:14.014Z,24.71
2018-12-23T10:52:14.007Z,24.80
2018-12-23T10:53:14.008Z,24.80
2018-12-23T10:54:14.015Z,24.80
2018-12-23T10:55:14.016Z,24.71
2018-12-23T10:56:14.016Z,24.71
2018-12-23T10:57:14.019Z,24.71
2018-12-23T10:58:14.022Z,24.80
2018-12-23T10:59:14.026Z,24.80
2018-12-23T11:00:14.046Z,24.71
2018-12-23T11:01:14.032Z,24.71
2018-12-23T11:02:14.117Z,24.80
2018-12-23T11:03:14.037Z,24.71
2018-12-23T11:04:14.045Z,24.80
2018-12-23T11:05:14.048Z,24.71
2018-12-23T11:06:14.046Z,24.71
2018-12-23T11:07:14.054Z,24.71
2018-12-23T11:08:14.055Z,24.71
2018-12-23T11:09:14.056Z,24.80
2018-12-23T11:10:14.057Z,24.71
2018-12-23T11:11:14.061Z,24.80
2018-12-23T11:12:14.063Z,24.71
2018-12-23T11:13:14.064Z,24.71
2018-12-23T11:14:14.069Z,24.80
2018-12-23T11:15:14.071Z,24.80
2018-12-23T11:16:14.075Z,24.80
2018-12-23T11:17:14.076Z,24.80
2018-12-23T11:18:14.080Z,24.80
2018-12-23T11:19:14.082Z,24.80
2018-12-23T11:20:14.085Z,24.80
2018-12-23T11:21:14.087Z,24.61
2018-12-23T11:22:14.091Z,24.80
2018-12-23T11:23:14.095Z,24.80
2018-12-23T11:24:14.097Z,24.80
2018-12-23T11:25:14.099Z,24.71
2018-12-23T11:26:14.102Z,24.71
2018-12-23T11:27:14.105Z,24.71
2018-12-23T11:28:14.109Z,24.71
2018-12-23T11:29:14.110Z,24.71
2018-12-23T11:30:14.113Z,24.80
2018-12-23T11:31:14.119Z,24.90
2018-12-23T11:32:14.121Z,24.80
2018-12-23T11:33:14.122Z,24.90
2018-12-23T11:34:14.124Z,24.80
2018-12-23T11:35:14.127Z,24.80
2018-12-23T11:36:14.134Z,24.71
2018-12-23T11:37:14.137Z,24.80
2018-12-23T11:38:14.135Z,24.71
2018-12-23T11:39:14.140Z,24.71
2018-12-23T11:40:14.143Z,24.71
2018-12-23T11:41:14.144Z,24.71
2018-12-23T11:42:14.147Z,24.80
2018-12-23T11:43:14.150Z,24.80
2018-12-23T11:44:14.153Z,24.71
2018-12-23T11:45:14.236Z,24.71
2018-12-23T11:46:14.159Z,24.80
2018-12-23T11:47:14.161Z,24.80
2018-12-23T11:48:14.166Z,24.80
2018-12-23T11:49:14.168Z,24.80
2018-12-23T11:50:14.175Z,24.80
2018-12-23T11:51:14.193Z,24.80
2018-12-23T11:52:14.176Z,24.71
2018-12-23T11:53:14.178Z,24.80
2018-12-23T11:54:14.182Z,24.80
2018-12-23T11:55:14.184Z,24.71
2018-12-23T11:56:14.188Z,24.71
2018-12-23T11:57:14.190Z,24.80
2018-12-23T11:58:14.193Z,24.61
2018-12-23T11:59:14.195Z,24.71
2018-12-23T12:00:14.199Z,24.71
2018-12-23T12:01:14.206Z,24.80
2018-12-23T12:02:15.411Z,24.71
2018-12-23T12:03:14.207Z,24.71
2018-12-23T12:04:14.209Z,24.71
2018-12-23T12:05:14.213Z,24.71
2018-12-23T12:06:14.219Z,24.61
2018-12-23T12:07:14.219Z,24.71
2018-12-23T12:08:14.221Z,24.71
2018-12-23T12:09:14.224Z,24.80
2018-12-23T12:10:14.227Z,24.80
2018-12-23T12:11:14.230Z,24.71
2018-12-23T12:12:14.232Z,24.80
2018-12-23T12:13:14.235Z,24.80
2018-12-23T12:14:14.247Z,24.61
2018-12-23T12:15:14.241Z,24.71
2018-12-23T12:16:14.250Z,24.80
2018-12-23T12:17:14.246Z,24.71
2018-12-23T12:18:14.248Z,24.80
2018-12-23T12:19:14.253Z,24.71
2018-12-23T12:20:14.254Z,24.80
2018-12-23T12:21:14.258Z,24.61
2018-12-23T12:22:14.261Z,24.71
2018-12-23T12:23:14.264Z,24.80
2018-12-23T12:24:14.266Z,24.80
2018-12-23T12:25:14.268Z,24.71
2018-12-23T12:26:14.271Z,24.71
2018-12-23T12:27:14.274Z,24.71
2018-12-23T12:28:14.276Z,24.71
2018-12-23T12:29:14.280Z,24.71
2018-12-23T12:30:14.283Z,24.71
2018-12-23T12:31:14.285Z,24.61
2018-12-23T12:32:14.290Z,24.71
2018-12-23T12:33:14.294Z,24.71
2018-12-23T12:34:14.295Z,24.80
2018-12-23T12:35:14.298Z,24.71
2018-12-23T12:36:14.301Z,24.90
2018-12-23T12:37:14.304Z,24.80
2018-12-23T12:38:14.307Z,24.71
2018-12-23T12:39:14.310Z,24.71
2018-12-23T12:40:14.312Z,24.71
2018-12-23T12:41:14.314Z,24.71
2018-12-23T12:42:14.318Z,24.71
2018-12-23T12:43:14.320Z,24.61
2018-12-23T12:44:14.324Z,24.80
2018-12-23T12:45:14.326Z,24.71
2018-12-23T12:46:14.329Z,24.71
2018-12-23T12:47:14.339Z,24.71
2018-12-23T12:48:14.340Z,24.71
2018-12-23T12:49:14.345Z,24.80
2018-12-23T12:50:14.341Z,24.71
2018-12-23T12:51:14.345Z,24.71
2018-12-23T12:52:14.347Z,24.80